Orbital elements of SL-12 DEB
| Launched | 30 May 1989 |
| Flight ended | – |
| Launch site | Tyuratam Missile and Space Center, Kazakhstan (Also known as Baikonur Cosmodrome) |
| Owner | Commonwealth of Independent States (former USSR) |
| NORAD ID | 29317 |
| Date fetched |
Epoch osculation |
Inc. [°] |
Ecc. | RA asc node [hr] |
Arg Peri. [°] |
Mean anom [°] |
Mean motion [rev/day] |
Abs. mag |
| Date fetched |
Epoch osculation |
Inc. [°] |
Ecc. | RA asc node [hr] |
Arg Peri. [°] |
Mean anom [°] |
Mean motion [rev/day] |
Abs. mag |
| 2026 May 03 17:57 | 2026 Apr 30 14:14:59 | 65.1018 | 0.54015 | 19.4308 | 95.7116 | 325.2072 | 4.63169 | – |
| 2026 May 02 17:57 | 2026 Apr 30 14:14:59 | 65.1018 | 0.54015 | 19.4308 | 95.7116 | 325.2072 | 4.63169 | – |
| 2026 May 01 17:56 | 2026 Apr 30 14:14:59 | 65.1018 | 0.54015 | 19.4308 | 95.7116 | 325.2072 | 4.63169 | – |
| 2026 Apr 30 17:56 | 2026 Apr 30 14:14:59 | 65.1018 | 0.54015 | 19.4308 | 95.7116 | 325.2072 | 4.63169 | – |
| 2026 Apr 29 17:57 | 2026 Apr 24 13:09:32 | 65.1028 | 0.54028 | 19.5929 | 96.0380 | 325.2072 | 4.63169 | – |
| 2026 Apr 28 17:56 | 2026 Apr 24 13:09:32 | 65.1028 | 0.54028 | 19.5929 | 96.0380 | 325.2072 | 4.63169 | – |
| 2026 Apr 27 17:58 | 2026 Apr 24 13:09:32 | 65.1028 | 0.54028 | 19.5929 | 96.0380 | 325.2072 | 4.63169 | – |
| 2026 Apr 26 17:58 | 2026 Apr 24 13:09:32 | 65.1028 | 0.54028 | 19.5929 | 96.0380 | 325.2072 | 4.63169 | – |
| 2026 Apr 25 17:58 | 2026 Apr 24 13:09:32 | 65.1028 | 0.54028 | 19.5929 | 96.0380 | 325.2072 | 4.63169 | – |
| 2026 Apr 24 17:59 | 2026 Apr 24 13:09:32 | 65.1028 | 0.54028 | 19.5929 | 96.0380 | 325.2072 | 4.63169 | – |
| 2026 Apr 23 17:57 | 2026 Apr 18 22:25:51 | 65.1039 | 0.54040 | 19.7435 | 96.3428 | 325.2072 | 4.63169 | – |
| 2026 Apr 22 17:57 | 2026 Apr 18 22:25:51 | 65.1039 | 0.54040 | 19.7435 | 96.3428 | 325.2072 | 4.63169 | – |
| 2026 Apr 21 17:57 | 2026 Apr 18 22:25:51 | 65.1039 | 0.54040 | 19.7435 | 96.3428 | 325.2072 | 4.63169 | – |
| 2026 Apr 20 17:57 | 2026 Apr 18 22:25:51 | 65.1039 | 0.54040 | 19.7435 | 96.3428 | 325.2072 | 4.63169 | – |
| 2026 Apr 19 17:58 | 2026 Apr 18 22:25:51 | 65.1039 | 0.54040 | 19.7435 | 96.3428 | 325.2072 | 4.63169 | – |
| 2026 Apr 18 17:56 | 2026 Apr 12 05:47:35 | 65.1046 | 0.54053 | 19.9230 | 96.7056 | 325.2072 | 4.63169 | – |
| 2026 Apr 16 17:57 | 2026 Apr 12 05:47:35 | 65.1046 | 0.54053 | 19.9230 | 96.7056 | 325.2072 | 4.63169 | – |
| 2026 Apr 14 17:57 | 2026 Apr 12 05:47:35 | 65.1046 | 0.54053 | 19.9230 | 96.7056 | 325.2072 | 4.63169 | – |
| 2026 Apr 13 17:57 | 2026 Apr 12 05:47:35 | 65.1046 | 0.54053 | 19.9230 | 96.7056 | 325.2072 | 4.63169 | – |
| 2026 Apr 12 17:57 | 2026 Apr 08 13:42:05 | 65.1047 | 0.54060 | 20.0216 | 96.9041 | 325.2072 | 4.63169 | – |
| 2026 Apr 11 17:57 | 2026 Apr 08 13:42:05 | 65.1047 | 0.54060 | 20.0216 | 96.9041 | 325.2072 | 4.63169 | – |
| 2026 Apr 10 17:58 | 2026 Apr 08 13:42:05 | 65.1047 | 0.54060 | 20.0216 | 96.9041 | 325.2072 | 4.63169 | – |
| 2026 Apr 09 18:01 | 2026 Apr 08 13:42:05 | 65.1047 | 0.54060 | 20.0216 | 96.9041 | 325.2072 | 4.63169 | – |
| 2026 Apr 08 17:57 | 2026 Apr 08 13:42:05 | 65.1047 | 0.54060 | 20.0216 | 96.9041 | 325.2072 | 4.63169 | – |
| 2026 Apr 07 17:57 | 2026 Apr 01 21:03:44 | 65.1050 | 0.54072 | 20.2012 | 97.2679 | 325.2072 | 4.63169 | – |
| 2026 Apr 06 17:57 | 2026 Apr 01 21:03:44 | 65.1050 | 0.54072 | 20.2012 | 97.2679 | 325.2072 | 4.63169 | – |